createdAt,value
2018-12-25T00:01:57.209Z,34.63
2018-12-25T00:04:25.510Z,37.97
2018-12-25T00:06:53.801Z,40.20
2018-12-25T00:09:22.122Z,37.70
2018-12-25T00:11:50.477Z,42.30
2018-12-25T00:14:18.755Z,37.93
2018-12-25T00:16:47.047Z,35.30
2018-12-25T00:19:15.330Z,36.37
2018-12-25T00:21:43.624Z,35.83
2018-12-25T00:24:11.915Z,39.10
2018-12-25T00:26:40.239Z,31.37
2018-12-25T00:29:08.575Z,33.97
2018-12-25T00:31:36.885Z,42.03
2018-12-25T00:34:05.250Z,35.47
2018-12-25T00:36:33.544Z,32.37
2018-12-25T00:39:01.836Z,32.93
2018-12-25T00:41:30.115Z,31.30
2018-12-25T00:43:58.442Z,33.50
2018-12-25T00:46:26.730Z,32.27
2018-12-25T00:48:55.022Z,34.60
2018-12-25T00:51:23.300Z,37.27
2018-12-25T00:53:51.621Z,31.17
2018-12-25T00:56:19.970Z,40.27
2018-12-25T00:58:48.288Z,32.70
2018-12-25T01:01:16.578Z,36.30
2018-12-25T01:03:44.877Z,33.03
2018-12-25T01:06:13.152Z,31.80
2018-12-25T01:08:41.447Z,33.83
2018-12-25T01:11:09.740Z,36.53
2018-12-25T01:13:38.210Z,34.17
2018-12-25T01:16:06.509Z,38.97
2018-12-25T01:18:34.901Z,34.80
2018-12-25T01:21:03.255Z,38.17
2018-12-25T01:23:31.563Z,33.90
2018-12-25T01:25:59.927Z,33.97
2018-12-25T01:28:28.289Z,33.60
2018-12-25T01:30:56.577Z,33.63
2018-12-25T01:33:24.886Z,29.93
2018-12-25T01:35:53.167Z,31.87
2018-12-25T01:38:21.497Z,33.33
2018-12-25T01:40:49.773Z,35.20
2018-12-25T01:43:18.080Z,33.63
2018-12-25T01:45:46.427Z,29.73
2018-12-25T01:48:14.707Z,31.63
2018-12-25T01:50:43.128Z,31.60
2018-12-25T01:53:11.416Z,30.43
2018-12-25T01:55:39.745Z,30.30
2018-12-25T01:58:08.197Z,32.53
2018-12-25T02:00:36.490Z,33.13
2018-12-25T02:03:04.777Z,35.87
2018-12-25T02:05:33.132Z,34.87
2018-12-25T02:08:01.433Z,37.17
2018-12-25T02:10:29.781Z,31.77
2018-12-25T02:12:58.092Z,35.20
2018-12-25T02:15:26.446Z,31.20
2018-12-25T02:17:54.748Z,38.13
2018-12-25T02:20:23.038Z,41.10
2018-12-25T02:22:51.324Z,37.07
2018-12-25T02:25:19.622Z,37.33
2018-12-25T02:27:47.946Z,34.50
2018-12-25T02:30:16.294Z,38.90
2018-12-25T02:32:44.593Z,34.23
2018-12-25T02:35:13.338Z,32.97
2018-12-25T02:37:41.690Z,35.57
2018-12-25T02:40:29.430Z,37.90
2018-12-25T02:42:58.179Z,34.27
2018-12-25T02:45:26.489Z,37.77
2018-12-25T02:47:54.853Z,44.07
2018-12-25T02:50:23.241Z,37.55
2018-12-25T02:52:51.604Z,37.47
2018-12-25T02:55:19.912Z,41.47
2018-12-25T02:57:48.267Z,42.37
2018-12-25T03:00:16.576Z,45.43
2018-12-25T03:02:45.024Z,38.87
2018-12-25T03:05:13.405Z,40.87
2018-12-25T03:07:41.851Z,57.03
2018-12-25T03:10:10.238Z,51.17
2018-12-25T03:12:38.590Z,43.17
2018-12-25T03:15:06.987Z,47.60
2018-12-25T03:17:35.343Z,53.30
2018-12-25T03:20:04.880Z,42.67
2018-12-25T03:22:33.198Z,44.80
2018-12-25T03:25:01.779Z,39.80
2018-12-25T03:27:30.153Z,42.73
2018-12-25T03:29:58.654Z,38.37
2018-12-25T03:32:27.039Z,34.43
2018-12-25T03:34:55.388Z,33.57
2018-12-25T03:37:23.842Z,33.90
2018-12-25T03:39:52.123Z,33.20
2018-12-25T03:42:20.494Z,30.87
2018-12-25T03:44:48.907Z,32.17
2018-12-25T03:47:17.238Z,31.97
2018-12-25T03:49:45.544Z,29.30
2018-12-25T03:52:13.826Z,34.37
2018-12-25T03:54:42.209Z,29.63
2018-12-25T03:57:10.570Z,30.03
2018-12-25T03:59:38.959Z,30.07
2018-12-25T04:02:07.379Z,25.93
2018-12-25T04:04:35.703Z,21.07
2018-12-25T04:07:04.075Z,18.40
2018-12-25T04:09:32.497Z,24.13
2018-12-25T04:12:00.827Z,24.60
2018-12-25T04:14:29.251Z,27.97
2018-12-25T04:16:57.554Z,31.47
2018-12-25T04:19:25.926Z,31.17
2018-12-25T04:21:54.293Z,37.43
2018-12-25T04:24:22.675Z,36.58
2018-12-25T04:26:50.967Z,41.10
2018-12-25T04:29:19.348Z,40.23
2018-12-25T04:31:47.749Z,34.57
2018-12-25T04:34:16.063Z,39.58
2018-12-25T04:36:44.356Z,34.77
2018-12-25T04:39:12.676Z,34.53
2018-12-25T04:41:41.037Z,35.33
2018-12-25T04:44:09.393Z,37.73
2018-12-25T04:46:37.822Z,37.13
2018-12-25T04:49:06.145Z,40.13
2018-12-25T04:51:34.500Z,44.83
2018-12-25T04:54:02.812Z,33.70
2018-12-25T04:56:31.177Z,38.20
2018-12-25T04:58:59.562Z,32.17
2018-12-25T05:01:27.970Z,38.88
2018-12-25T05:03:56.316Z,39.15
2018-12-25T05:06:24.617Z,35.50
2018-12-25T05:08:52.992Z,34.93
2018-12-25T05:11:21.277Z,34.93
2018-12-25T05:13:49.576Z,30.10
2018-12-25T05:16:17.942Z,30.80
2018-12-25T05:18:46.234Z,32.63
2018-12-25T05:21:14.543Z,32.60
2018-12-25T05:23:42.834Z,31.53
2018-12-25T05:26:11.272Z,29.93
2018-12-25T05:28:39.612Z,30.23
2018-12-25T05:31:07.979Z,30.77
2018-12-25T05:33:36.343Z,36.50
2018-12-25T05:36:04.725Z,34.05
2018-12-25T05:38:33.095Z,36.20
2018-12-25T05:41:01.492Z,29.98
2018-12-25T05:43:29.815Z,36.85
2018-12-25T05:45:58.127Z,31.33
2018-12-25T05:48:26.423Z,33.40
2018-12-25T05:50:54.809Z,28.62
2018-12-25T05:53:23.189Z,29.60
2018-12-25T05:55:51.586Z,27.75
2018-12-25T05:58:19.955Z,31.03
2018-12-25T06:00:48.329Z,27.03
2018-12-25T06:03:16.685Z,28.57
2018-12-25T06:05:45.097Z,34.85
2018-12-25T06:08:13.557Z,31.57
2018-12-25T06:10:41.961Z,30.57
2018-12-25T06:13:10.333Z,30.43
2018-12-25T06:15:38.648Z,30.72
2018-12-25T06:18:07.021Z,28.42
2018-12-25T06:20:35.400Z,26.02
2018-12-25T06:23:03.784Z,27.98
2018-12-25T06:25:32.109Z,26.90
2018-12-25T06:28:00.402Z,27.17
2018-12-25T06:30:28.780Z,25.40
2018-12-25T06:32:57.230Z,26.43
2018-12-25T06:35:25.550Z,24.27
2018-12-25T06:37:53.855Z,23.05
2018-12-25T06:40:22.244Z,24.00
2018-12-25T06:42:50.694Z,25.30
2018-12-25T06:45:19.051Z,23.53
2018-12-25T06:47:47.371Z,22.73
2018-12-25T06:50:15.657Z,21.60
2018-12-25T06:52:43.961Z,22.07
2018-12-25T06:55:12.351Z,27.10
2018-12-25T06:57:40.750Z,25.88
2018-12-25T07:00:09.108Z,24.37
2018-12-25T07:02:37.415Z,25.67
2018-12-25T07:05:05.749Z,25.47
2018-12-25T07:07:34.071Z,26.40
2018-12-25T07:10:02.383Z,24.87
2018-12-25T07:12:30.781Z,22.07
2018-12-25T07:14:59.145Z,26.53
2018-12-25T07:17:27.455Z,22.40
2018-12-25T07:19:55.896Z,24.03
2018-12-25T07:22:24.304Z,21.77
2018-12-25T07:24:52.602Z,21.17
2018-12-25T07:27:20.981Z,20.50
2018-12-25T07:29:50.334Z,22.43
2018-12-25T07:32:18.831Z,19.25
2018-12-25T07:34:47.126Z,18.00
2018-12-25T07:37:15.450Z,20.37
2018-12-25T07:39:43.812Z,23.90
2018-12-25T07:42:12.130Z,23.22
2018-12-25T07:44:40.981Z,28.43
2018-12-25T07:47:11.213Z,28.17
2018-12-25T07:49:39.408Z,26.80
2018-12-25T07:52:07.798Z,28.17
2018-12-25T07:54:36.175Z,29.33
2018-12-25T07:57:04.671Z,27.17
2018-12-25T07:59:33.059Z,25.70
2018-12-25T08:02:01.503Z,24.53
2018-12-25T08:04:29.817Z,20.17
2018-12-25T08:06:59.807Z,24.13
2018-12-25T08:09:28.111Z,20.53
2018-12-25T08:11:57.083Z,21.37
2018-12-25T08:14:25.695Z,24.47
2018-12-25T08:16:54.033Z,24.67
2018-12-25T08:19:22.325Z,23.53
2018-12-25T08:21:50.745Z,23.00
2018-12-25T08:24:19.101Z,25.77
2018-12-25T08:26:47.520Z,24.27
2018-12-25T08:29:15.955Z,25.60
2018-12-25T08:31:44.328Z,22.37
2018-12-25T08:34:12.693Z,27.67
2018-12-25T08:36:41.066Z,29.03
2018-12-25T08:39:09.378Z,35.97
2018-12-25T08:41:37.750Z,28.33
2018-12-25T08:44:06.132Z,26.33
2018-12-25T08:46:34.434Z,28.50
2018-12-25T08:49:02.807Z,26.93
2018-12-25T08:51:37.589Z,26.47
2018-12-25T08:54:01.122Z,23.40
2018-12-25T08:56:29.420Z,25.67
2018-12-25T08:58:57.698Z,32.97
2018-12-25T09:01:26.059Z,25.80
2018-12-25T09:03:54.394Z,27.80
2018-12-25T09:06:22.704Z,54.03
2018-12-25T09:08:50.999Z,48.10
2018-12-25T09:11:19.423Z,36.70
2018-12-25T09:13:47.873Z,38.23
2018-12-25T09:16:16.247Z,30.70
2018-12-25T09:18:44.787Z,31.20
2018-12-25T09:21:13.145Z,35.40
2018-12-25T09:23:41.529Z,30.17
2018-12-25T09:26:09.889Z,26.33
2018-12-25T09:28:38.201Z,29.63
2018-12-25T09:31:06.491Z,32.27
2018-12-25T09:33:35.162Z,31.27
2018-12-25T09:36:03.627Z,31.93
2018-12-25T09:38:31.939Z,33.87
2018-12-25T09:41:00.324Z,38.10
2018-12-25T09:43:28.695Z,38.53
2018-12-25T09:45:56.998Z,36.33
2018-12-25T09:48:25.306Z,33.90
2018-12-25T09:50:53.666Z,35.37
2018-12-25T09:53:21.976Z,39.73
2018-12-25T09:55:50.258Z,34.63
2018-12-25T09:58:18.543Z,33.83
2018-12-25T10:00:46.929Z,39.37
2018-12-25T10:03:15.278Z,32.73
2018-12-25T10:05:43.599Z,32.90
2018-12-25T10:08:11.971Z,35.97
2018-12-25T10:10:40.356Z,34.70
2018-12-25T10:13:08.727Z,31.43
2018-12-25T10:15:37.107Z,30.67
2018-12-25T10:18:05.405Z,35.13
2018-12-25T10:20:33.776Z,33.93
2018-12-25T10:23:02.139Z,33.90
2018-12-25T10:25:30.486Z,34.97
2018-12-25T10:27:58.860Z,31.63
2018-12-25T10:30:27.158Z,37.83
2018-12-25T10:32:55.480Z,36.60
2018-12-25T10:35:23.861Z,31.30
2018-12-25T10:37:52.409Z,35.73
2018-12-25T10:40:20.758Z,33.47
2018-12-25T10:42:49.074Z,33.47
2018-12-25T10:45:17.441Z,28.87
2018-12-25T10:47:45.758Z,26.73
2018-12-25T10:50:14.128Z,27.83
2018-12-25T10:52:42.452Z,30.17
2018-12-25T10:55:10.743Z,28.70
2018-12-25T10:57:39.137Z,25.57
2018-12-25T11:00:10.799Z,26.93
2018-12-25T11:02:39.189Z,34.40
2018-12-25T11:05:07.559Z,29.67
2018-12-25T11:07:35.973Z,28.20
2018-12-25T11:10:06.395Z,24.40
2018-12-25T11:12:34.685Z,23.70
2018-12-25T11:15:03.010Z,22.83
2018-12-25T11:17:31.380Z,23.17
2018-12-25T11:19:59.699Z,20.57
2018-12-25T11:22:28.069Z,23.37
2018-12-25T11:24:56.487Z,20.50
2018-12-25T11:27:24.872Z,22.67
2018-12-25T11:29:53.246Z,24.40
2018-12-25T11:32:21.558Z,23.50
2018-12-25T11:34:49.914Z,22.47
2018-12-25T11:37:20.384Z,20.17
2018-12-25T11:39:49.719Z,20.97
2018-12-25T11:42:18.256Z,22.60
2018-12-25T11:44:46.548Z,19.97
2018-12-25T11:47:14.940Z,18.97
2018-12-25T11:49:43.376Z,21.03
2018-12-25T11:52:11.825Z,19.40
2018-12-25T11:54:40.134Z,17.73
2018-12-25T11:57:08.510Z,16.17
2018-12-25T11:59:36.995Z,19.70
2018-12-25T12:02:05.558Z,18.10
2018-12-25T12:04:33.936Z,18.37
2018-12-25T12:07:02.231Z,16.13
2018-12-25T12:09:30.600Z,17.20
2018-12-25T12:11:58.893Z,16.23
2018-12-25T12:14:27.285Z,14.17
2018-12-25T12:16:55.744Z,13.93
2018-12-25T12:19:24.042Z,15.80
2018-12-25T12:21:52.328Z,17.67
2018-12-25T12:24:20.636Z,15.33
2018-12-25T12:26:49.038Z,17.60
2018-12-25T12:29:17.347Z,15.70
2018-12-25T12:31:45.635Z,18.07
2018-12-25T12:34:14.016Z,18.77
2018-12-25T12:36:42.369Z,16.57
2018-12-25T12:39:10.683Z,17.00
2018-12-25T12:41:38.997Z,17.23
2018-12-25T12:44:07.395Z,17.63
2018-12-25T12:46:35.863Z,20.53
2018-12-25T12:49:04.247Z,17.00
2018-12-25T12:51:32.719Z,16.17
2018-12-25T12:54:01.137Z,17.03
2018-12-25T12:56:29.689Z,17.30
2018-12-25T12:58:57.987Z,20.27
2018-12-25T13:01:26.284Z,17.80
2018-12-25T13:03:54.611Z,17.93
2018-12-25T13:06:22.900Z,18.07
2018-12-25T13:08:51.250Z,17.83
2018-12-25T13:11:19.601Z,15.63
2018-12-25T13:13:48.038Z,17.40
2018-12-25T13:16:16.404Z,17.20
2018-12-25T13:18:44.695Z,17.97
2018-12-25T13:21:12.983Z,16.60
2018-12-25T13:23:41.267Z,17.77
2018-12-25T13:26:09.568Z,19.33
2018-12-25T13:28:37.856Z,17.50
2018-12-25T13:31:06.152Z,18.00
2018-12-25T13:33:34.672Z,16.57
2018-12-25T13:36:02.973Z,18.47
2018-12-25T13:38:31.337Z,15.80
2018-12-25T13:41:00.217Z,16.83
2018-12-25T13:43:28.712Z,21.30
2018-12-25T13:45:57.062Z,18.03
2018-12-25T13:48:25.456Z,17.83
2018-12-25T13:50:53.742Z,16.93
2018-12-25T13:53:22.042Z,17.97
2018-12-25T13:55:50.329Z,18.37
2018-12-25T13:58:18.709Z,16.80
2018-12-25T14:00:47.003Z,20.00
2018-12-25T14:03:15.416Z,19.20
2018-12-25T14:05:43.721Z,18.53
2018-12-25T14:08:12.067Z,18.87
2018-12-25T14:10:40.383Z,21.07
2018-12-25T14:13:09.569Z,19.63
2018-12-25T14:15:37.942Z,17.27
2018-12-25T14:18:06.313Z,18.07
2018-12-25T14:20:34.590Z,18.03
2018-12-25T14:23:11.011Z,16.87
2018-12-25T14:25:32.979Z,18.83
2018-12-25T14:28:20.709Z,17.37
2018-12-25T14:30:48.996Z,18.93
2018-12-25T14:33:17.301Z,18.63
2018-12-25T14:35:45.663Z,18.60
2018-12-25T14:38:14.042Z,22.13
2018-12-25T14:40:42.343Z,19.67
2018-12-25T14:43:10.788Z,16.93
2018-12-25T14:45:39.427Z,19.93
2018-12-25T14:48:07.967Z,18.37
2018-12-25T14:50:36.426Z,18.87
2018-12-25T14:53:04.832Z,17.90
2018-12-25T14:55:33.248Z,16.87
2018-12-25T14:58:01.570Z,20.47
2018-12-25T15:00:29.932Z,17.47
2018-12-25T15:02:58.359Z,18.30
2018-12-25T15:05:26.896Z,19.93
2018-12-25T15:07:55.619Z,18.17
2018-12-25T15:10:24.136Z,17.77
2018-12-25T15:12:52.940Z,17.13
2018-12-25T15:15:21.844Z,16.00
2018-12-25T15:17:50.253Z,18.40
2018-12-25T15:20:18.554Z,16.70
2018-12-25T15:22:46.834Z,16.13
2018-12-25T15:25:15.505Z,24.80
2018-12-25T15:27:44.224Z,16.63
2018-12-25T15:30:12.978Z,17.80
2018-12-25T15:32:41.602Z,16.40
2018-12-25T15:35:10.820Z,18.07
2018-12-25T15:37:39.141Z,19.60
2018-12-25T15:40:08.364Z,17.80
2018-12-25T15:42:37.037Z,20.77
2018-12-25T15:45:07.202Z,20.37
2018-12-25T15:47:35.986Z,17.07
2018-12-25T15:50:06.432Z,15.87
2018-12-25T15:52:35.383Z,17.07
2018-12-25T15:55:04.023Z,16.93
2018-12-25T15:57:32.410Z,15.23
2018-12-25T16:00:00.776Z,16.97
2018-12-25T16:02:29.150Z,15.23
2018-12-25T16:04:57.468Z,16.27
2018-12-25T16:07:25.829Z,18.27
2018-12-25T16:09:54.198Z,16.40
2018-12-25T16:12:22.572Z,17.63
2018-12-25T16:14:50.965Z,18.53
2018-12-25T16:17:19.318Z,15.17
2018-12-25T16:19:47.614Z,18.93
2018-12-25T16:22:15.993Z,18.30
2018-12-25T16:24:44.273Z,15.60
2018-12-25T16:27:12.577Z,16.13
2018-12-25T16:29:40.859Z,20.23
2018-12-25T16:32:09.172Z,15.43
2018-12-25T16:34:37.527Z,16.43
2018-12-25T16:37:05.829Z,16.93
2018-12-25T16:39:34.211Z,14.97
2018-12-25T16:42:02.513Z,17.80
2018-12-25T16:44:30.801Z,18.77
2018-12-25T16:46:59.233Z,26.10
2018-12-25T16:49:27.605Z,24.83
2018-12-25T16:51:55.899Z,23.97
2018-12-25T16:54:24.298Z,27.23
2018-12-25T16:56:52.871Z,23.90
2018-12-25T16:59:21.245Z,26.07
2018-12-25T17:01:49.616Z,25.00
2018-12-25T17:04:18.005Z,22.30
2018-12-25T17:06:46.381Z,21.63
2018-12-25T17:09:14.704Z,23.87
2018-12-25T17:11:43.026Z,29.47
2018-12-25T17:14:11.553Z,33.27
2018-12-25T17:16:39.906Z,36.43
2018-12-25T17:19:08.221Z,41.70
2018-12-25T17:21:36.504Z,34.30
2018-12-25T17:24:04.884Z,34.33
2018-12-25T17:26:33.245Z,36.57
2018-12-25T17:29:01.622Z,34.13
2018-12-25T17:31:29.904Z,34.07
2018-12-25T17:33:58.295Z,39.13
2018-12-25T17:36:26.730Z,37.20
2018-12-25T17:38:55.098Z,36.30
2018-12-25T17:41:23.388Z,37.50
2018-12-25T17:43:51.775Z,32.97
2018-12-25T17:46:20.136Z,34.47
2018-12-25T17:48:48.458Z,34.70
2018-12-25T17:51:16.789Z,35.93
2018-12-25T17:53:45.109Z,32.63
2018-12-25T17:56:13.473Z,37.03
2018-12-25T17:58:41.854Z,37.33
2018-12-25T18:01:10.288Z,33.57
2018-12-25T18:03:38.822Z,37.43
2018-12-25T18:06:07.104Z,34.03
2018-12-25T18:08:35.428Z,33.00
2018-12-25T18:11:03.710Z,31.63
2018-12-25T18:13:32.000Z,31.53
2018-12-25T18:16:00.324Z,34.60
2018-12-25T18:18:28.614Z,34.97
2018-12-25T18:20:56.933Z,33.67
2018-12-25T18:23:25.292Z,34.10
2018-12-25T18:25:53.618Z,35.57
2018-12-25T18:28:21.986Z,31.97
2018-12-25T18:30:50.845Z,35.00
2018-12-25T18:33:19.238Z,33.67
2018-12-25T18:35:47.533Z,38.90
2018-12-25T18:38:15.917Z,35.53
2018-12-25T18:40:44.393Z,35.03
2018-12-25T18:43:12.810Z,34.90
2018-12-25T18:45:41.105Z,29.10
2018-12-25T18:48:09.690Z,33.47
2018-12-25T18:50:37.975Z,28.37
2018-12-25T18:53:06.274Z,28.73
2018-12-25T18:55:34.568Z,31.23
2018-12-25T18:58:02.880Z,27.17
2018-12-25T19:00:31.255Z,32.53
2018-12-25T19:02:59.668Z,30.00
2018-12-25T19:05:27.948Z,29.03
2018-12-25T19:07:56.348Z,31.23
2018-12-25T19:10:24.676Z,30.20
2018-12-25T19:12:53.204Z,34.93
2018-12-25T19:15:22.560Z,31.93
2018-12-25T19:17:52.566Z,38.50
2018-12-25T19:20:20.952Z,36.17
2018-12-25T19:22:49.226Z,40.73
2018-12-25T19:25:17.530Z,37.70
2018-12-25T19:27:45.891Z,31.40
2018-12-25T19:30:17.619Z,31.30
2018-12-25T19:32:45.911Z,34.93
2018-12-25T19:35:14.277Z,29.93
2018-12-25T19:37:42.670Z,29.00
2018-12-25T19:40:11.365Z,27.90
2018-12-25T19:42:39.842Z,30.30
2018-12-25T19:45:08.174Z,28.17
2018-12-25T19:47:36.581Z,28.23
2018-12-25T19:50:05.878Z,26.83
2018-12-25T19:52:34.182Z,28.10
2018-12-25T19:55:02.471Z,32.87
2018-12-25T19:57:30.921Z,30.80
2018-12-25T19:59:59.271Z,25.40
2018-12-25T20:02:27.648Z,26.83
2018-12-25T20:05:04.907Z,30.10
2018-12-25T20:07:36.544Z,34.07
2018-12-25T20:10:19.889Z,29.13
2018-12-25T20:13:06.273Z,31.43
2018-12-25T20:15:43.363Z,32.43
2018-12-25T20:18:35.779Z,33.30
2018-12-25T20:21:40.541Z,31.40
2018-12-25T20:24:24.043Z,33.73
2018-12-25T20:27:18.339Z,32.27
2018-12-25T20:29:49.983Z,34.30
2018-12-25T20:32:21.606Z,37.53
2018-12-25T20:35:09.842Z,37.03
2018-12-25T20:38:03.887Z,39.00
2018-12-25T20:40:44.507Z,38.17
2018-12-25T20:43:16.129Z,37.00
2018-12-25T20:46:07.191Z,44.90
2018-12-25T20:48:44.554Z,34.30
2018-12-25T20:51:28.108Z,36.20
2018-12-25T20:54:11.499Z,29.57
2018-12-25T20:57:10.471Z,31.73
2018-12-25T21:00:01.719Z,30.33
2018-12-25T21:02:48.069Z,31.37
2018-12-25T21:05:39.476Z,33.60
2018-12-25T21:08:30.657Z,38.20
2018-12-25T21:11:34.246Z,34.53
2018-12-25T21:14:23.705Z,36.90
2018-12-25T21:17:11.770Z,35.53
2018-12-25T21:19:43.352Z,37.58
2018-12-25T21:22:23.811Z,47.73
2018-12-25T21:25:28.651Z,39.33
2018-12-25T21:27:56.106Z,40.23
2018-12-25T21:30:24.409Z,43.83
2018-12-25T21:32:52.716Z,44.00
2018-12-25T21:35:21.255Z,38.00
2018-12-25T21:37:50.085Z,41.00
2018-12-25T21:40:18.475Z,39.27
2018-12-25T21:42:47.353Z,39.20
2018-12-25T21:45:15.723Z,38.57
2018-12-25T21:47:44.119Z,40.03
2018-12-25T21:50:12.426Z,38.67
2018-12-25T21:52:40.851Z,41.60
2018-12-25T21:55:18.331Z,38.40
2018-12-25T21:57:39.759Z,41.90
2018-12-25T22:00:11.118Z,43.13
2018-12-25T22:02:40.423Z,40.17
2018-12-25T22:05:08.782Z,44.07
2018-12-25T22:07:37.166Z,44.23
2018-12-25T22:10:06.951Z,41.53
2018-12-25T22:12:37.310Z,48.20
2018-12-25T22:15:09.175Z,53.60
2018-12-25T22:17:39.013Z,46.30
2018-12-25T22:20:32.729Z,50.97
2018-12-25T22:23:01.124Z,41.68
2018-12-25T22:25:29.591Z,43.43
2018-12-25T22:27:57.964Z,47.13
2018-12-25T22:30:26.293Z,42.53
2018-12-25T22:32:54.645Z,42.03
2018-12-25T22:35:23.046Z,35.10
2018-12-25T22:37:51.366Z,37.03
2018-12-25T22:40:19.879Z,39.10
2018-12-25T22:42:48.243Z,41.57
2018-12-25T22:45:16.610Z,43.40
2018-12-25T22:47:45.089Z,43.03
2018-12-25T22:50:13.494Z,39.07
2018-12-25T22:52:41.790Z,44.45
2018-12-25T22:55:10.258Z,43.53
2018-12-25T22:57:38.637Z,41.70
2018-12-25T23:00:11.369Z,46.13
2018-12-25T23:02:39.725Z,42.13
2018-12-25T23:05:08.106Z,42.67
2018-12-25T23:07:36.513Z,42.93
2018-12-25T23:10:06.326Z,42.60
2018-12-25T23:12:34.701Z,40.00
2018-12-25T23:15:03.011Z,41.13
2018-12-25T23:17:31.297Z,41.63
2018-12-25T23:19:59.613Z,42.40
2018-12-25T23:22:28.061Z,41.73
2018-12-25T23:24:56.443Z,37.50
2018-12-25T23:27:24.793Z,40.70
2018-12-25T23:29:53.095Z,38.80
2018-12-25T23:32:21.393Z,42.57
2018-12-25T23:34:49.722Z,42.20
2018-12-25T23:37:18.069Z,39.23
2018-12-25T23:39:46.431Z,41.57
2018-12-25T23:42:14.821Z,37.67
2018-12-25T23:44:43.252Z,41.53
2018-12-25T23:47:11.559Z,44.27
2018-12-25T23:49:39.919Z,40.17
2018-12-25T23:52:08.245Z,41.83
2018-12-25T23:54:36.535Z,40.70
2018-12-25T23:57:05.021Z,43.77
2018-12-25T23:59:33.423Z,43.37
